Time;durP1;ratioP1;P1;durP2;ratioP2;P2;SDS_P1;SDS_P2;PMS_P1;PMS_P2;Temp;Humidity;BMP_temperature;BMP_pressure;BME280_temperature;BME280_humidity;BME280_pressure;Samples;Min_cycle;Max_cycle;Signal;HPM_P1;HPM_P2
2023/07/07 02:49:00;;;;;;;3.77;2.03;;;;;;;15.85;44.42;100883.47;23222744;23;20548;-81
2023/07/07 02:59:03;;;;;;;2.42;2.22;;;;;;;15.47;45.59;100887.31;20092123;29;20275;-81
2023/07/07 03:09:07;;;;;;;5.05;2.35;;;;;;;15.52;45.34;100895.59;20086936;29;20222;-82
2023/07/07 03:19:12;;;;;;;3.07;2.43;;;;;;;15.56;45.82;100899.41;20047180;29;20219;-82
2023/07/07 03:29:23;;;;;;;6.37;2.77;;;;;;;15.47;46.77;100901.50;20069558;29;20225;-80
2023/07/07 03:39:27;;;;;;;3.35;2.33;;;;;;;15.40;46.83;100915.41;20084094;29;20199;-82
2023/07/07 03:49:30;;;;;;;4.80;2.33;;;;;;;15.36;46.85;100914.44;20057797;29;20233;-81
2023/07/07 03:59:35;;;;;;;5.53;2.70;;;;;;;15.58;46.64;100918.94;20068415;29;20266;-80
2023/07/07 04:09:38;;;;;;;4.53;2.38;;;;;;;15.54;46.63;100930.13;20085911;29;20230;-82
2023/07/07 04:19:40;;;;;;;2.90;1.75;;;;;;;15.42;47.79;100932.91;20071162;29;20668;-82
2023/07/07 04:29:43;;;;;;;4.97;2.23;;;;;;;15.60;47.02;100936.41;20076783;29;20615;-81
2023/07/07 04:39:46;;;;;;;4.47;2.07;;;;;;;15.80;47.29;100939.25;20076097;29;20588;-81
2023/07/07 04:49:48;;;;;;;4.80;2.37;;;;;;;15.75;47.35;100933.75;20081551;29;20307;-82
2023/07/07 04:59:51;;;;;;;2.40;2.20;;;;;;;16.06;45.53;100936.13;20088232;29;20599;-81
2023/07/07 05:09:56;;;;;;;5.83;2.50;;;;;;;16.14;45.95;100943.69;20081342;29;20251;-79
2023/07/07 05:19:58;;;;;;;5.40;2.33;;;;;;;16.57;45.86;100927.31;20078677;29;20199;-79
2023/07/07 05:30:01;;;;;;;2.97;1.88;;;;;;;16.75;45.31;100951.47;20069689;29;20234;-79
2023/07/07 05:40:04;;;;;;;3.60;1.92;;;;;;;17.19;44.67;100932.56;20099894;29;20210;-79
2023/07/07 05:50:08;;;;;;;4.13;2.38;;;;;;;17.57;45.60;100943.47;20087274;29;20242;-82
2023/07/07 06:00:13;;;;;;;5.25;2.17;;;;;;;17.84;44.87;100936.94;20074193;29;20330;-79
2023/07/07 06:10:17;;;;;;;4.47;2.00;;;;;;;18.01;44.32;100941.53;20066050;29;20513;-81
2023/07/07 06:20:20;;;;;;;4.90;1.60;;;;;;;18.06;44.32;100944.09;20073217;29;20563;-80
2023/07/07 06:30:23;;;;;;;3.92;1.40;;;;;;;18.57;42.17;100936.50;20071204;29;20691;-82
2023/07/07 06:40:25;;;;;;;5.45;1.50;;;;;;;19.02;40.05;100945.72;20087897;29;20203;-81
2023/07/07 06:50:30;;;;;;;2.63;1.20;;;;;;;19.12;41.76;100956.56;20081714;29;20471;-82
2023/07/07 07:00:33;;;;;;;5.82;1.55;;;;;;;19.09;40.62;100946.75;20084642;29;20266;-82
2023/07/07 07:10:35;;;;;;;3.42;1.23;;;;;;;19.74;37.18;100948.97;20059033;29;20242;-81
2023/07/07 07:20:38;;;;;;;2.13;1.13;;;;;;;19.82;38.74;100950.78;20081529;29;20223;-82
2023/07/07 07:30:42;;;;;;;3.33;1.58;;;;;;;20.66;36.82;100947.88;20062422;29;20282;-82
2023/07/07 07:40:44;;;;;;;4.40;2.03;;;;;;;21.15;38.00;100939.25;20063868;29;20203;-82
2023/07/07 07:50:47;;;;;;;5.38;1.88;;;;;;;21.52;34.40;100953.69;20061803;29;20238;-82
2023/07/07 08:00:49;;;;;;;3.80;1.65;;;;;;;22.21;35.53;100959.03;20065415;29;20206;-81
2023/07/07 08:10:52;;;;;;;4.53;1.83;;;;;;;21.94;35.77;100964.06;20057521;29;20687;-82
2023/07/07 08:21:11;;;;;;;2.95;1.13;;;;;;;23.10;31.77;100960.69;20075693;29;20648;-81
2023/07/07 08:31:14;;;;;;;4.63;1.38;;;;;;;22.67;32.75;100968.09;20064356;29;20574;-82
2023/07/07 08:41:17;;;;;;;4.32;1.48;;;;;;;22.72;32.17;100968.56;20057592;29;20600;-82
2023/07/07 08:51:27;;;;;;;5.07;1.27;;;;;;;23.75;30.26;100954.06;20050171;29;20527;-82
2023/07/07 09:01:39;;;;;;;1.38;0.80;;;;;;;24.07;29.33;100949.22;20059003;29;20199;-81
2023/07/07 09:12:00;;;;;;;2.03;1.20;;;;;;;24.17;27.67;100948.44;20076224;29;20579;-81
2023/07/07 09:22:08;;;;;;;2.92;1.08;;;;;;;24.54;27.41;100941.53;20069148;29;20203;-82
2023/07/07 09:32:12;;;;;;;2.03;0.90;;;;;;;24.69;27.23;100946.06;20083491;29;20230;-82
2023/07/07 09:42:38;;;;;;;6.75;1.65;;;;;;;24.72;26.66;100942.38;20052792;29;20190;-81
2023/07/07 09:52:44;;;;;;;4.30;1.30;;;;;;;25.72;24.98;100940.09;20090687;29;20226;-82
2023/07/07 10:02:46;;;;;;;1.40;0.75;;;;;;;25.24;25.56;100931.19;20104107;29;20266;-82
2023/07/07 10:12:49;;;;;;;2.78;1.00;;;;;;;24.92;24.86;100931.25;20071266;29;20226;-82
2023/07/07 10:22:52;;;;;;;4.82;1.58;;;;;;;25.39;25.77;100924.16;20089241;29;20228;-80
2023/07/07 10:32:54;;;;;;;3.45;0.98;;;;;;;25.67;24.58;100932.69;20054946;29;20234;-80
2023/07/07 10:42:58;;;;;;;5.88;1.35;;;;;;;25.96;24.99;100915.28;20065403;29;20216;-82
2023/07/07 10:53:20;;;;;;;2.47;0.93;;;;;;;26.41;23.69;100913.31;20077753;29;20299;-81
2023/07/07 11:03:48;;;;;;;2.80;1.10;;;;;;;26.83;23.19;100900.63;20071821;29;20561;-80
2023/07/07 11:13:59;;;;;;;1.63;1.05;;;;;;;26.80;22.94;100889.09;20064821;29;20223;-82
2023/07/07 11:24:21;;;;;;;4.22;1.10;;;;;;;26.86;23.54;100891.09;20094350;29;20210;-79
2023/07/07 11:34:53;;;;;;;2.35;0.88;;;;;;;26.89;22.56;100887.31;20081373;29;20206;-82
2023/07/07 11:45:33;;;;;;;3.90;1.17;;;;;;;27.37;21.99;100867.00;20086343;29;20218;-82
2023/07/07 11:55:58;;;;;;;2.22;0.80;;;;;;;28.05;21.64;100852.44;20011631;29;20308;-82
2023/07/07 12:06:04;;;;;;;1.98;1.25;;;;;;;27.89;20.59;100868.81;20024443;29;20231;-81
2023/07/07 12:16:19;;;;;;;3.15;1.25;;;;;;;28.59;21.26;100839.94;20001424;29;20207;-80
2023/07/07 12:26:39;;;;;;;3.28;0.90;;;;;;;28.64;20.02;100839.44;19992707;29;20696;-82
2023/07/07 12:36:45;;;;;;;2.10;1.10;;;;;;;28.24;20.63;100824.81;20003005;29;20672;-79
2023/07/07 12:46:47;;;;;;;2.00;0.95;;;;;;;28.88;19.75;100822.88;20014729;29;20509;-80
2023/07/07 12:57:04;;;;;;;2.25;1.13;;;;;;;27.77;21.19;100802.88;20064663;29;20549;-80
2023/07/07 13:07:18;;;;;;;1.42;1.10;;;;;;;29.15;19.84;100806.97;20093219;29;20238;-82
2023/07/07 13:17:24;;;;;;;4.18;1.05;;;;;;;29.33;18.11;100802.91;20085647;29;20263;-82
2023/07/07 13:27:27;;;;;;;3.10;1.30;;;;;;;29.44;19.75;100794.78;20076789;29;20286;-80
2023/07/07 13:37:32;;;;;;;2.40;1.08;;;;;;;29.57;18.17;100792.84;20085272;29;20267;-80
2023/07/07 13:47:41;;;;;;;3.17;0.80;;;;;;;29.76;19.28;100789.06;20091266;29;20226;-82
2023/07/07 13:57:44;;;;;;;3.83;1.38;;;;;;;29.09;19.17;100779.78;20090101;29;20263;-82
2023/07/07 14:07:50;;;;;;;1.98;1.17;;;;;;;28.62;18.15;100781.97;20070838;29;20267;-82
2023/07/07 14:17:53;;;;;;;2.17;1.35;;;;;;;29.32;18.00;100780.97;20051905;29;20499;-83
2023/07/07 14:27:58;;;;;;;1.83;0.88;;;;;;;29.41;17.93;100767.50;20072429;29;20255;-81
2023/07/07 14:38:06;;;;;;;2.03;1.10;;;;;;;28.74;18.15;100757.31;20095880;29;20255;-82
2023/07/07 14:48:17;;;;;;;1.65;1.10;;;;;;;29.75;18.13;100746.00;20092846;29;20242;-82
2023/07/07 14:58:24;;;;;;;3.28;1.15;;;;;;;28.96;18.01;100731.66;20087732;29;20258;-82
2023/07/07 15:08:29;;;;;;;3.05;0.98;;;;;;;29.19;17.63;100730.72;20067086;29;20247;-80
2023/07/07 15:18:32;;;;;;;4.05;0.90;;;;;;;29.46;18.84;100722.66;20093197;29;20267;-81
2023/07/07 15:28:36;;;;;;;1.83;1.20;;;;;;;29.34;17.40;100732.06;20076611;29;20565;-81
2023/07/07 15:38:41;;;;;;;1.88;0.98;;;;;;;28.64;16.32;100723.59;20089523;29;20207;-80
2023/07/07 15:48:44;;;;;;;1.48;0.95;;;;;;;29.81;17.22;100712.28;20084538;29;20294;-81
2023/07/07 15:58:47;;;;;;;2.10;1.00;;;;;;;29.07;20.33;100706.97;20102046;29;20266;-79
2023/07/07 16:08:50;;;;;;;2.35;1.27;;;;;;;28.78;20.89;100703.06;20067025;29;20226;-80
2023/07/07 16:18:53;;;;;;;4.53;1.35;;;;;;;28.30;22.08;100703.63;20089989;29;20239;-80
2023/07/07 16:29:12;;;;;;;1.40;1.02;;;;;;;28.49;22.25;100694.13;20103680;29;20232;-78
2023/07/07 16:39:18;;;;;;;1.63;1.00;;;;;;;28.12;23.57;100701.00;20095735;29;20623;-80
2023/07/07 16:49:21;;;;;;;2.03;1.15;;;;;;;27.88;23.37;100697.31;20090336;29;20234;-79
2023/07/07 16:59:24;;;;;;;2.97;1.33;;;;;;;27.71;23.12;100693.44;20094586;29;20202;-80
2023/07/07 17:09:26;;;;;;;2.20;1.33;;;;;;;27.71;23.75;100698.41;20110482;29;20290;-78
2023/07/07 17:19:29;;;;;;;4.60;0.95;;;;;;;27.74;23.72;100700.41;20106417;29;20218;-76
2023/07/07 17:29:32;;;;;;;2.95;1.27;;;;;;;27.95;22.90;100691.38;20088786;29;20226;-79
2023/07/07 17:39:35;;;;;;;3.92;1.38;;;;;;;27.66;24.25;100670.00;20087956;29;20270;-76
2023/07/07 17:49:38;;;;;;;2.22;1.30;;;;;;;27.57;25.19;100676.31;20099467;29;20254;-76
2023/07/07 17:59:41;;;;;;;5.05;1.50;;;;;;;27.39;24.47;100672.94;20075611;29;20508;-77
2023/07/07 18:09:43;;;;;;;4.22;1.15;;;;;;;27.10;25.58;100677.47;20094388;29;20255;-78
2023/07/07 18:19:46;;;;;;;3.53;1.45;;;;;;;26.93;25.15;100674.38;20105148;29;20210;-81
2023/07/07 18:30:40;;;;;;;4.22;1.65;;;;;;;26.84;24.92;100676.19;20077800;29;20234;-77
2023/07/07 18:40:43;;;;;;;7.60;1.45;;;;;;;26.69;25.79;100684.19;20100771;29;20214;-73
2023/07/07 18:50:48;;;;;;;3.33;1.42;;;;;;;26.07;26.18;100690.22;20095560;29;20284;-77
2023/07/07 19:00:55;;;;;;;2.70;1.60;;;;;;;26.09;27.13;100687.75;20078951;29;20202;-78
2023/07/07 19:11:00;;;;;;;4.63;2.20;;;;;;;25.93;27.03;100692.00;20104265;29;20230;-77
2023/07/07 19:21:03;;;;;;;4.20;1.30;;;;;;;26.00;27.37;100686.16;20065908;29;20565;-78
2023/07/07 19:31:13;;;;;;;3.47;1.70;;;;;;;25.11;28.81;100693.81;20072195;29;20222;-77
2023/07/07 19:41:19;;;;;;;6.22;2.08;;;;;;;24.94;28.81;100705.00;20069345;29;20254;-77
2023/07/07 19:51:30;;;;;;;5.68;3.63;;;;;;;24.44;29.60;100703.53;20075594;29;20222;-77
2023/07/07 20:01:34;;;;;;;3.08;2.15;;;;;;;24.20;29.49;100703.19;20055115;29;20619;-77
2023/07/07 20:11:39;;;;;;;5.68;1.80;;;;;;;24.65;28.89;100700.63;20063121;29;20253;-78
2023/07/07 20:21:42;;;;;;;5.05;1.75;;;;;;;24.42;28.81;100700.28;20029359;29;20263;-78
2023/07/07 20:31:48;;;;;;;3.17;1.33;;;;;;;24.02;29.98;100699.50;20049345;29;20230;-79
2023/07/07 20:41:51;;;;;;;6.22;1.55;;;;;;;24.11;30.50;100702.00;20073394;29;20206;-77
2023/07/07 20:51:54;;;;;;;3.47;1.83;;;;;;;22.84;31.74;100698.50;20089219;29;20230;-77
2023/07/07 21:01:56;;;;;;;4.68;1.80;;;;;;;23.31;31.63;100699.47;20090113;29;20203;-77
2023/07/07 21:11:59;;;;;;;4.57;1.98;;;;;;;23.64;31.22;100706.09;20089779;29;20226;-80
2023/07/07 21:22:08;;;;;;;7.28;1.67;;;;;;;23.40;31.67;100708.50;20118011;29;20203;-80
2023/07/07 21:32:11;;;;;;;4.80;1.98;;;;;;;22.96;32.65;100728.06;20105086;29;20226;-80
2023/07/07 21:42:17;;;;;;;4.65;2.00;;;;;;;22.97;33.56;100732.59;20092375;29;20240;-80
2023/07/07 21:52:20;;;;;;;3.03;2.10;;;;;;;22.46;34.83;100739.31;20106033;29;20726;-80
2023/07/07 22:02:24;;;;;;;10.07;1.70;;;;;;;22.24;35.19;100731.75;20097746;29;20202;-81
2023/07/07 22:12:27;;;;;;;5.90;2.10;;;;;;;22.02;35.52;100734.47;20110600;29;20227;-80
2023/07/07 22:22:31;;;;;;;3.95;1.83;;;;;;;22.41;35.10;100719.59;20114909;29;20202;-78
2023/07/07 22:32:33;;;;;;;4.18;2.08;;;;;;;22.21;35.37;100721.09;20148987;29;20254;-78
2023/07/07 22:42:36;;;;;;;3.50;1.77;;;;;;;22.36;34.42;100722.81;20128166;29;20232;-78
2023/07/07 22:52:40;;;;;;;3.90;1.70;;;;;;;22.45;35.05;100723.31;20069061;29;20238;-78
2023/07/07 23:02:43;;;;;;;2.75;1.85;;;;;;;22.04;35.33;100716.88;20092124;29;20202;-78
2023/07/07 23:12:47;;;;;;;5.57;2.03;;;;;;;21.72;35.93;100719.44;20100308;29;20263;-80
2023/07/07 23:22:51;;;;;;;3.42;1.75;;;;;;;21.31;37.33;100715.78;20093131;29;20203;-80
2023/07/07 23:32:53;;;;;;;4.55;2.25;;;;;;;21.21;37.42;100725.09;20084955;29;20635;-81
2023/07/07 23:42:57;;;;;;;3.53;1.90;;;;;;;21.29;37.68;100718.25;20072625;29;20242;-77
2023/07/07 23:52:59;;;;;;;2.67;2.30;;;;;;;20.91;39.42;100708.81;20065099;29;20719;-78
